Time;durP1;ratioP1;P1;durP2;ratioP2;P2;SDS_P1;SDS_P2;PMS_P1;PMS_P2;Temp;Humidity;BMP_temperature;BMP_pressure;BME280_temperature;BME280_humidity;BME280_pressure;Samples;Min_cycle;Max_cycle;Signal;HPM_P1;HPM_P2
2022/06/13 00:00:06;;;;;;;;;;;18.70;66.70;;;;;;5087846;28;19920;-70
2022/06/13 00:02:33;;;;;;;;;;;18.70;66.80;;;;;;5102319;28;19958;-71
2022/06/13 00:04:59;;;;;;;;;;;18.70;66.70;;;;;;5096624;28;19916;-71
2022/06/13 00:07:25;;;;;;;;;;;18.70;67.00;;;;;;5102933;28;19916;-70
2022/06/13 00:09:50;;;;;;;;;;;18.60;67.20;;;;;;5106452;28;20320;-69
2022/06/13 00:12:16;;;;;;;;;;;18.60;67.40;;;;;;5103624;28;19974;-70
2022/06/13 00:14:41;;;;;;;;;;;18.50;67.70;;;;;;5087192;28;19982;-70
2022/06/13 00:17:07;;;;;;;;;;;18.50;67.90;;;;;;5093668;28;19916;-70
2022/06/13 00:19:32;;;;;;;;;;;18.50;67.80;;;;;;5089613;28;19964;-70
2022/06/13 00:21:58;;;;;;;;;;;18.40;68.00;;;;;;5097089;28;19912;-71
2022/06/13 00:24:23;;;;;;;;;;;18.40;68.20;;;;;;5106036;28;20375;-70
2022/06/13 00:26:49;;;;;;;;;;;18.40;68.20;;;;;;5098661;28;19917;-70
2022/06/13 00:29:14;;;;;;;;;;;18.40;67.90;;;;;;5100053;28;19912;-70
2022/06/13 00:31:41;;;;;;;;;;;18.30;68.40;;;;;;5103759;28;20024;-70
2022/06/13 00:34:06;;;;;;;;;;;18.30;68.20;;;;;;5101783;28;19911;-71
2022/06/13 00:36:32;;;;;;;;;;;18.30;68.70;;;;;;5104802;28;19984;-70
2022/06/13 00:38:57;;;;;;;;;;;18.20;68.60;;;;;;5087944;28;19920;-70
2022/06/13 00:41:25;;;;;;;;;;;18.20;68.80;;;;;;5105200;28;20328;-70
2022/06/13 00:43:51;;;;;;;;;;;18.20;68.80;;;;;;5092395;28;19912;-70
2022/06/13 00:46:17;;;;;;;;;;;18.20;69.10;;;;;;5091045;28;20640;-70
2022/06/13 00:48:42;;;;;;;;;;;18.10;69.10;;;;;;5103027;28;20416;-70
2022/06/13 00:51:08;;;;;;;;;;;18.10;69.10;;;;;;5106206;28;19926;-70
2022/06/13 00:53:35;;;;;;;;;;;18.10;69.00;;;;;;5102941;28;20584;-70
2022/06/13 00:56:05;;;;;;;;;;;18.00;69.10;;;;;;5105441;28;19911;-70
2022/06/13 00:58:33;;;;;;;;;;;18.00;69.30;;;;;;5109024;27;19912;-70
2022/06/13 01:00:59;;;;;;;;;;;18.00;69.50;;;;;;5096677;28;19939;-70
2022/06/13 01:03:26;;;;;;;;;;;17.90;69.50;;;;;;5087555;28;20616;-70
2022/06/13 01:05:53;;;;;;;;;;;17.90;69.60;;;;;;5103818;28;19919;-70
2022/06/13 01:08:20;;;;;;;;;;;17.90;69.50;;;;;;5101838;28;19915;-70
2022/06/13 01:13:52;;;;;;;;;;;17.80;69.90;;;;;;5099755;28;20028;-70
2022/06/13 01:16:36;;;;;;;;;;;17.80;70.30;;;;;;5105288;28;19919;-70
2022/06/13 01:19:14;;;;;;;;;;;17.80;69.60;;;;;;5093324;28;20585;-70
2022/06/13 01:21:58;;;;;;;;;;;17.80;70.10;;;;;;5101163;28;19998;-70
2022/06/13 01:24:35;;;;;;;;;;;17.70;70.10;;;;;;5098949;28;19926;-70
2022/06/13 01:27:23;;;;;;;;;;;17.70;70.00;;;;;;5098839;28;19913;-70
2022/06/13 01:30:00;;;;;;;;;;;17.70;70.30;;;;;;5094587;28;19912;-70
2022/06/13 01:32:45;;;;;;;;;;;17.70;70.40;;;;;;5105710;28;19908;-70
2022/06/13 01:35:13;;;;;;;;;;;17.60;70.50;;;;;;5097371;28;19976;-70
2022/06/13 01:38:02;;;;;;;;;;;17.60;70.50;;;;;;5103623;28;20661;-70
2022/06/13 01:40:46;;;;;;;;;;;17.60;70.50;;;;;;5092750;28;20009;-70
2022/06/13 01:43:14;;;;;;;;;;;17.60;70.50;;;;;;5105131;28;19915;-70
2022/06/13 01:45:43;;;;;;;;;;;17.50;70.50;;;;;;5102487;28;19962;-70
2022/06/13 01:48:27;;;;;;;;;;;17.50;70.80;;;;;;5099679;28;19916;-70
2022/06/13 01:51:05;;;;;;;;;;;17.50;70.80;;;;;;5094834;28;19923;-70
2022/06/13 01:53:37;;;;;;;;;;;17.50;70.90;;;;;;5103402;28;20031;-70
2022/06/13 01:56:04;;;;;;;;;;;17.40;70.90;;;;;;5105390;28;20562;-70
2022/06/13 01:58:30;;;;;;;;;;;17.40;71.00;;;;;;5103264;28;19908;-70
2022/06/13 02:01:03;;;;;;;;;;;17.40;71.20;;;;;;5095338;28;20471;-70
2022/06/13 02:03:35;;;;;;;;;;;17.40;71.20;;;;;;5106446;28;19920;-70
2022/06/13 02:06:03;;;;;;;;;;;17.40;70.90;;;;;;5101488;28;19915;-70
2022/06/13 02:08:32;;;;;;;;;;;17.40;71.20;;;;;;5102307;28;19918;-70
2022/06/13 02:11:27;;;;;;;;;;;17.30;71.30;;;;;;5122232;27;19916;-70
2022/06/13 02:13:56;;;;;;;;;;;17.30;71.20;;;;;;5095406;28;19933;-70
2022/06/13 02:16:24;;;;;;;;;;;17.30;71.40;;;;;;5094141;28;20363;-70
2022/06/13 02:19:10;;;;;;;;;;;17.30;71.50;;;;;;5103787;28;20249;-70
2022/06/13 02:21:50;;;;;;;;;;;17.30;71.50;;;;;;5115156;27;20410;-70
2022/06/13 02:24:17;;;;;;;;;;;17.30;71.60;;;;;;5097510;28;19908;-70
2022/06/13 02:26:44;;;;;;;;;;;17.20;71.70;;;;;;5102696;28;19915;-70
2022/06/13 02:29:22;;;;;;;;;;;17.20;71.80;;;;;;5088283;28;19919;-70
2022/06/13 02:31:56;;;;;;;;;;;17.20;71.80;;;;;;5090871;28;19999;-70
2022/06/13 02:34:24;;;;;;;;;;;17.20;71.70;;;;;;5105713;28;19916;-70
2022/06/13 02:36:56;;;;;;;;;;;17.20;71.80;;;;;;5103841;28;20415;-70
2022/06/13 02:39:36;;;;;;;;;;;17.20;71.90;;;;;;5100069;28;20018;-70
2022/06/13 02:42:10;;;;;;;;;;;17.20;72.00;;;;;;5104794;28;19932;-70
2022/06/13 02:44:44;;;;;;;;;;;17.10;72.00;;;;;;5099947;28;19954;-70
2022/06/13 02:47:15;;;;;;;;;;;17.10;72.10;;;;;;5104201;28;19915;-70
2022/06/13 02:49:45;;;;;;;;;;;17.10;72.10;;;;;;5097834;28;19996;-70
2022/06/13 02:52:27;;;;;;;;;;;17.10;72.20;;;;;;5092066;28;19920;-70
2022/06/13 02:54:57;;;;;;;;;;;17.10;72.30;;;;;;5104513;28;19969;-70
2022/06/13 02:57:41;;;;;;;;;;;17.10;72.30;;;;;;5102159;28;19970;-70
2022/06/13 03:00:25;;;;;;;;;;;17.10;72.40;;;;;;5089361;28;20027;-70
2022/06/13 03:03:17;;;;;;;;;;;17.00;72.40;;;;;;5105952;28;19919;-70
2022/06/13 03:05:45;;;;;;;;;;;17.00;72.40;;;;;;5094892;28;19915;-70
2022/06/13 03:08:13;;;;;;;;;;;17.00;72.60;;;;;;5102969;28;19922;-70
2022/06/13 03:10:45;;;;;;;;;;;17.00;72.60;;;;;;5107601;28;19908;-70
2022/06/13 03:13:19;;;;;;;;;;;17.00;72.70;;;;;;5102723;28;20283;-70
2022/06/13 03:15:50;;;;;;;;;;;16.90;72.60;;;;;;5087708;28;20276;-70
2022/06/13 03:18:18;;;;;;;;;;;16.90;72.70;;;;;;5098551;28;19922;-70
2022/06/13 03:20:49;;;;;;;;;;;16.90;72.80;;;;;;5098699;28;20010;-70
2022/06/13 03:23:20;;;;;;;;;;;16.90;72.90;;;;;;5102690;28;20599;-69
2022/06/13 03:26:05;;;;;;;;;;;16.90;72.90;;;;;;5107017;28;20005;-70
2022/06/13 03:28:42;;;;;;;;;;;16.90;72.80;;;;;;5097401;28;19916;-70
2022/06/13 03:31:11;;;;;;;;;;;16.90;73.00;;;;;;5107400;28;19918;-70
2022/06/13 03:33:40;;;;;;;;;;;16.90;73.00;;;;;;5104124;28;19919;-70
2022/06/13 03:36:26;;;;;;;;;;;16.90;72.80;;;;;;5107327;28;19912;-70
2022/06/13 03:39:01;;;;;;;;;;;16.90;72.90;;;;;;5095523;28;19934;-70
2022/06/13 03:41:31;;;;;;;;;;;16.90;73.00;;;;;;5105546;28;20681;-70
2022/06/13 03:44:04;;;;;;;;;;;16.90;73.10;;;;;;5100157;28;19946;-70
2022/06/13 03:46:43;;;;;;;;;;;16.90;73.20;;;;;;5087317;28;19918;-70
2022/06/13 03:49:08;;;;;;;;;;;16.90;73.50;;;;;;5104524;28;19912;-70
2022/06/13 03:51:38;;;;;;;;;;;16.90;73.70;;;;;;5106852;28;19919;-70
2022/06/13 03:54:15;;;;;;;;;;;16.90;73.50;;;;;;5104536;28;20018;-70
2022/06/13 03:57:01;;;;;;;;;;;16.80;73.60;;;;;;5105579;28;19916;-70
2022/06/13 03:59:47;;;;;;;;;;;16.80;73.50;;;;;;5095519;28;19916;-70
2022/06/13 04:02:15;;;;;;;;;;;16.90;73.60;;;;;;5106274;28;19923;-70
2022/06/13 04:04:45;;;;;;;;;;;16.80;73.30;;;;;;5101505;28;19939;-70
2022/06/13 04:07:10;;;;;;;;;;;16.80;72.90;;;;;;5106025;28;20678;-70
2022/06/13 04:09:38;;;;;;;;;;;16.80;73.20;;;;;;5097392;28;19912;-70
2022/06/13 04:12:10;;;;;;;;;;;16.80;73.30;;;;;;5104134;28;19916;-70
2022/06/13 04:14:47;;;;;;;;;;;16.80;73.20;;;;;;5105380;28;19959;-70
2022/06/13 04:17:20;;;;;;;;;;;16.80;72.90;;;;;;5092020;28;19916;-70
2022/06/13 04:20:00;;;;;;;;;;;16.80;72.90;;;;;;5094114;28;20020;-70
2022/06/13 04:22:29;;;;;;;;;;;16.80;72.70;;;;;;5103478;28;20622;-70
2022/06/13 04:24:56;;;;;;;;;;;16.80;73.00;;;;;;5094939;28;20652;-70
2022/06/13 04:27:24;;;;;;;;;;;16.80;73.00;;;;;;5096523;28;19959;-70
2022/06/13 04:30:09;;;;;;;;;;;16.80;72.90;;;;;;5095276;28;19912;-70
2022/06/13 04:32:41;;;;;;;;;;;16.80;72.90;;;;;;5093112;28;19915;-70
2022/06/13 04:35:07;;;;;;;;;;;16.80;72.90;;;;;;5104062;28;19981;-70
2022/06/13 04:37:33;;;;;;;;;;;16.80;73.00;;;;;;5102516;27;20834;-70
2022/06/13 04:40:01;;;;;;;;;;;16.80;73.10;;;;;;5115781;27;19911;-70
2022/06/13 04:42:28;;;;;;;;;;;16.80;73.20;;;;;;5100402;28;19912;-70
2022/06/13 04:44:57;;;;;;;;;;;16.80;73.20;;;;;;5086122;28;19918;-70
2022/06/13 04:47:23;;;;;;;;;;;16.80;73.40;;;;;;5092518;28;20007;-70
2022/06/13 04:49:53;;;;;;;;;;;16.80;73.20;;;;;;5099159;28;20006;-70
2022/06/13 04:52:37;;;;;;;;;;;16.80;73.20;;;;;;5097633;28;19951;-70
2022/06/13 04:55:06;;;;;;;;;;;16.80;73.30;;;;;;5103619;28;20292;-70
2022/06/13 04:57:32;;;;;;;;;;;16.80;73.30;;;;;;5102592;28;19916;-70
2022/06/13 04:59:57;;;;;;;;;;;16.80;73.30;;;;;;5094160;28;19923;-70
2022/06/13 05:02:33;;;;;;;;;;;16.80;73.40;;;;;;5097984;28;19920;-70
2022/06/13 05:04:59;;;;;;;;;;;16.80;73.50;;;;;;5095389;28;19912;-70
2022/06/13 05:07:24;;;;;;;;;;;16.80;73.50;;;;;;5100826;28;20580;-70
2022/06/13 05:09:57;;;;;;;;;;;16.80;73.60;;;;;;5097864;28;20017;-70
2022/06/13 05:12:43;;;;;;;;;;;16.80;73.80;;;;;;5103247;28;19922;-69
2022/06/13 05:15:18;;;;;;;;;;;16.80;73.90;;;;;;5092379;28;20449;-70
2022/06/13 05:17:49;;;;;;;;;;;16.80;73.80;;;;;;5093058;28;19968;-71
2022/06/13 05:20:34;;;;;;;;;;;16.80;73.90;;;;;;5097805;28;19951;-71
2022/06/13 05:23:11;;;;;;;;;;;16.80;74.20;;;;;;5088599;28;19920;-71
2022/06/13 05:25:54;;;;;;;;;;;16.80;74.60;;;;;;5103456;28;19923;-71
2022/06/13 05:28:21;;;;;;;;;;;16.80;74.50;;;;;;5090704;28;20626;-70
2022/06/13 05:30:48;;;;;;;;;;;16.70;74.60;;;;;;5088396;28;19939;-70
2022/06/13 05:33:16;;;;;;;;;;;16.80;74.50;;;;;;5085177;28;19919;-71
2022/06/13 05:35:43;;;;;;;;;;;16.80;74.90;;;;;;5103734;28;19943;-70
2022/06/13 05:38:20;;;;;;;;;;;16.80;74.60;;;;;;5103000;28;19931;-71
2022/06/13 05:40:46;;;;;;;;;;;16.80;74.60;;;;;;5101879;28;19915;-70
2022/06/13 05:43:12;;;;;;;;;;;16.80;74.80;;;;;;5105709;28;20364;-71
2022/06/13 05:45:38;;;;;;;;;;;16.80;74.60;;;;;;5102006;28;20388;-71
2022/06/13 05:48:04;;;;;;;;;;;16.80;74.90;;;;;;5105444;28;19919;-71
2022/06/13 05:50:32;;;;;;;;;;;16.80;75.00;;;;;;5106916;28;20348;-71
2022/06/13 05:52:57;;;;;;;;;;;16.80;75.00;;;;;;5104441;28;19911;-70
2022/06/13 05:55:23;;;;;;;;;;;16.80;75.30;;;;;;5102394;28;19993;-71
2022/06/13 05:57:49;;;;;;;;;;;16.80;75.40;;;;;;5105396;28;19934;-70
2022/06/13 06:00:18;;;;;;;;;;;16.80;75.40;;;;;;5091635;28;20380;-71
2022/06/13 06:02:43;;;;;;;;;;;16.80;75.40;;;;;;5085368;28;20260;-71
2022/06/13 06:05:09;;;;;;;;;;;16.80;75.40;;;;;;5090278;28;19916;-71
2022/06/13 06:07:36;;;;;;;;;;;16.80;75.60;;;;;;5103518;28;20425;-71
2022/06/13 06:10:01;;;;;;;;;;;16.80;75.70;;;;;;5095180;28;19915;-71
2022/06/13 06:12:27;;;;;;;;;;;16.70;75.80;;;;;;5091561;28;20249;-71
2022/06/13 06:14:53;;;;;;;;;;;16.70;75.70;;;;;;5096226;28;20529;-71
2022/06/13 06:17:18;;;;;;;;;;;16.70;75.60;;;;;;5105502;28;20003;-71
2022/06/13 06:19:44;;;;;;;;;;;16.70;76.00;;;;;;5097833;28;19927;-72
2022/06/13 06:22:09;;;;;;;;;;;16.80;76.00;;;;;;5091146;28;19912;-71
2022/06/13 06:24:35;;;;;;;;;;;16.80;76.30;;;;;;5105096;28;20105;-71
2022/06/13 06:27:00;;;;;;;;;;;16.80;76.00;;;;;;5099186;28;19969;-71
2022/06/13 06:29:26;;;;;;;;;;;16.80;75.90;;;;;;5097379;28;19912;-71
2022/06/13 06:31:52;;;;;;;;;;;16.80;76.00;;;;;;5095992;28;19916;-70
2022/06/13 06:34:17;;;;;;;;;;;16.80;76.10;;;;;;5104395;28;20306;-71
2022/06/13 06:36:43;;;;;;;;;;;16.90;76.00;;;;;;5118264;28;20342;-71
2022/06/13 06:39:10;;;;;;;;;;;16.90;76.00;;;;;;5080031;28;19916;-71
2022/06/13 06:41:35;;;;;;;;;;;16.90;76.10;;;;;;5115606;27;19957;-71
2022/06/13 06:44:01;;;;;;;;;;;16.90;76.20;;;;;;5108261;28;19923;-71
2022/06/13 06:46:26;;;;;;;;;;;17.00;76.10;;;;;;5106341;28;19916;-71
2022/06/13 06:48:52;;;;;;;;;;;17.00;76.20;;;;;;5098706;28;19922;-72
2022/06/13 06:51:18;;;;;;;;;;;17.10;76.20;;;;;;5103798;28;19926;-71
2022/06/13 07:01:59;;;;;;;;;;;17.20;76.30;;;;;;5105300;28;19938;-71
2022/06/13 07:04:25;;;;;;;;;;;17.20;76.20;;;;;;5107075;28;20415;-71
2022/06/13 07:06:50;;;;;;;;;;;17.20;76.40;;;;;;5106259;28;20023;-71
2022/06/13 07:09:16;;;;;;;;;;;17.20;76.30;;;;;;5098880;28;19912;-71
2022/06/13 07:11:54;;;;;;;;;;;17.20;76.50;;;;;;5105345;28;19934;-71
2022/06/13 07:14:25;;;;;;;;;;;17.20;76.30;;;;;;5105177;28;19912;-71
2022/06/13 07:16:50;;;;;;;;;;;17.20;76.20;;;;;;5104388;28;19912;-71
2022/06/13 07:19:16;;;;;;;;;;;17.20;76.10;;;;;;5099245;28;20688;-71
2022/06/13 07:21:41;;;;;;;;;;;17.20;76.40;;;;;;5099368;28;19912;-70
2022/06/13 07:24:07;;;;;;;;;;;17.30;76.30;;;;;;5105573;28;19916;-70
2022/06/13 07:26:33;;;;;;;;;;;17.30;76.40;;;;;;5122780;27;19923;-71
2022/06/13 07:28:58;;;;;;;;;;;17.30;76.10;;;;;;5103793;28;20569;-71
2022/06/13 07:31:30;;;;;;;;;;;17.30;76.10;;;;;;5106566;28;19916;-71
2022/06/13 07:33:55;;;;;;;;;;;17.30;76.10;;;;;;5105201;28;20006;-70
2022/06/13 07:36:21;;;;;;;;;;;17.40;75.90;;;;;;5105799;28;20022;-71
2022/06/13 07:38:47;;;;;;;;;;;17.50;76.10;;;;;;5098123;28;19926;-70
2022/06/13 07:41:17;;;;;;;;;;;17.50;76.00;;;;;;5102610;28;19927;-70
2022/06/13 07:43:43;;;;;;;;;;;17.50;76.00;;;;;;5104698;28;20598;-71
2022/06/13 07:46:10;;;;;;;;;;;17.50;75.90;;;;;;5095777;28;20379;-70
2022/06/13 07:48:35;;;;;;;;;;;17.60;75.90;;;;;;5100798;28;20618;-70
2022/06/13 07:51:02;;;;;;;;;;;17.60;76.30;;;;;;5106296;28;19981;-71
2022/06/13 07:53:27;;;;;;;;;;;17.60;75.90;;;;;;5105570;28;19977;-70
2022/06/13 07:55:53;;;;;;;;;;;17.70;76.00;;;;;;5103362;28;19930;-71
2022/06/13 07:58:25;;;;;;;;;;;17.70;75.70;;;;;;5106859;28;19916;-71
2022/06/13 08:00:51;;;;;;;;;;;17.70;75.70;;;;;;5102048;28;19962;-71
2022/06/13 08:03:18;;;;;;;;;;;17.70;75.90;;;;;;5107143;28;19912;-71
2022/06/13 08:05:44;;;;;;;;;;;17.80;76.10;;;;;;5091623;28;19950;-70
2022/06/13 08:08:10;;;;;;;;;;;17.90;75.80;;;;;;5102363;28;19912;-71
2022/06/13 08:10:39;;;;;;;;;;;17.90;75.50;;;;;;5096419;28;19938;-71
2022/06/13 08:13:04;;;;;;;;;;;18.00;75.60;;;;;;5107264;28;19912;-71
2022/06/13 08:15:30;;;;;;;;;;;18.10;75.70;;;;;;5103863;28;19943;-71
2022/06/13 08:17:55;;;;;;;;;;;18.10;75.30;;;;;;5105685;27;19976;-71
2022/06/13 08:20:21;;;;;;;;;;;18.20;75.60;;;;;;5099677;28;19962;-71
2022/06/13 08:22:47;;;;;;;;;;;18.20;75.10;;;;;;5086908;28;19912;-71
2022/06/13 08:25:21;;;;;;;;;;;18.20;75.50;;;;;;5088216;28;19923;-70
2022/06/13 08:27:47;;;;;;;;;;;18.20;75.50;;;;;;5105774;28;19958;-70
2022/06/13 08:30:12;;;;;;;;;;;18.30;75.40;;;;;;5097683;28;19920;-71
2022/06/13 08:32:38;;;;;;;;;;;18.40;75.30;;;;;;5093678;28;19916;-71
2022/06/13 08:35:04;;;;;;;;;;;18.40;75.00;;;;;;5098718;28;19944;-71
2022/06/13 08:37:29;;;;;;;;;;;18.40;74.90;;;;;;5104824;28;19916;-70
2022/06/13 08:39:55;;;;;;;;;;;18.40;74.80;;;;;;5103726;28;20017;-71
2022/06/13 08:42:25;;;;;;;;;;;18.50;74.80;;;;;;5103736;28;19916;-71
2022/06/13 08:45:07;;;;;;;;;;;18.50;74.50;;;;;;5104280;28;19912;-71
2022/06/13 08:47:44;;;;;;;;;;;18.60;74.80;;;;;;5093601;28;20022;-71
2022/06/13 08:50:12;;;;;;;;;;;18.60;74.80;;;;;;5099142;28;19919;-71
2022/06/13 08:52:44;;;;;;;;;;;18.60;74.60;;;;;;5095667;28;19981;-70
2022/06/13 08:55:17;;;;;;;;;;;18.70;74.50;;;;;;5085966;28;19912;-72
2022/06/13 08:57:45;;;;;;;;;;;18.70;74.50;;;;;;5094948;28;19924;-70
2022/06/13 09:00:18;;;;;;;;;;;18.60;74.30;;;;;;5101388;28;20014;-70
2022/06/13 09:02:50;;;;;;;;;;;18.60;74.30;;;;;;5102360;28;19922;-70
2022/06/13 09:05:27;;;;;;;;;;;18.60;74.30;;;;;;5104791;28;19911;-71
2022/06/13 09:07:58;;;;;;;;;;;18.60;75.00;;;;;;5091688;28;19969;-71
2022/06/13 09:10:39;;;;;;;;;;;18.60;74.30;;;;;;5096755;28;19916;-71
2022/06/13 09:13:08;;;;;;;;;;;18.70;74.10;;;;;;5097294;28;19916;-70
2022/06/13 09:15:38;;;;;;;;;;;18.70;73.80;;;;;;5105846;28;19916;-71
2022/06/13 09:18:33;;;;;;;;;;;18.80;73.70;;;;;;5100682;28;20622;-71
2022/06/13 09:20:58;;;;;;;;;;;18.80;73.70;;;;;;5087310;28;19966;-71
2022/06/13 09:23:31;;;;;;;;;;;18.80;73.60;;;;;;5104308;28;19955;-70
2022/06/13 09:26:08;;;;;;;;;;;18.90;73.50;;;;;;5094964;28;19958;-70
2022/06/13 09:28:42;;;;;;;;;;;18.90;73.50;;;;;;5097909;28;19923;-71
2022/06/13 09:31:17;;;;;;;;;;;18.90;73.30;;;;;;5096845;28;20715;-71
2022/06/13 09:33:45;;;;;;;;;;;18.90;73.40;;;;;;5102224;28;19954;-70
2022/06/13 09:36:17;;;;;;;;;;;18.90;73.30;;;;;;5094685;28;19914;-71
2022/06/13 09:38:45;;;;;;;;;;;18.90;73.30;;;;;;5097904;28;19923;-71
2022/06/13 09:41:27;;;;;;;;;;;18.90;73.30;;;;;;5096529;28;19911;-71
2022/06/13 09:43:53;;;;;;;;;;;18.90;73.40;;;;;;5099875;28;20295;-71
2022/06/13 09:46:31;;;;;;;;;;;19.10;73.10;;;;;;5103149;28;19908;-71
2022/06/13 09:49:14;;;;;;;;;;;19.20;72.70;;;;;;5097042;28;19966;-71
2022/06/13 09:51:49;;;;;;;;;;;19.30;72.60;;;;;;5095670;28;19920;-71
2022/06/13 09:54:35;;;;;;;;;;;19.30;72.40;;;;;;5091456;28;19976;-71
2022/06/13 09:57:10;;;;;;;;;;;19.30;72.40;;;;;;5084696;28;20257;-71
2022/06/13 09:59:35;;;;;;;;;;;19.40;72.60;;;;;;5096846;28;19920;-71
2022/06/13 10:02:03;;;;;;;;;;;19.40;72.60;;;;;;5105507;28;19989;-71
2022/06/13 10:04:44;;;;;;;;;;;19.30;72.50;;;;;;5103163;28;19943;-71
2022/06/13 10:07:16;;;;;;;;;;;19.30;72.60;;;;;;5096391;28;19919;-71
2022/06/13 10:09:41;;;;;;;;;;;19.30;72.50;;;;;;5095730;28;20000;-71
2022/06/13 10:12:17;;;;;;;;;;;19.30;72.60;;;;;;5105033;28;19949;-71
2022/06/13 10:14:45;;;;;;;;;;;19.40;72.10;;;;;;5105901;28;19916;-71
2022/06/13 10:17:17;;;;;;;;;;;19.40;71.50;;;;;;5105827;28;19954;-71
2022/06/13 10:19:42;;;;;;;;;;;19.60;71.50;;;;;;5101612;28;19924;-71
2022/06/13 10:22:18;;;;;;;;;;;19.60;71.20;;;;;;5107578;28;19968;-71
2022/06/13 10:24:46;;;;;;;;;;;19.70;70.70;;;;;;5105762;28;19919;-71
2022/06/13 10:27:30;;;;;;;;;;;19.80;70.60;;;;;;5104981;28;19916;-72
2022/06/13 10:30:11;;;;;;;;;;;19.80;70.50;;;;;;5088270;28;19920;-71
2022/06/13 10:32:46;;;;;;;;;;;20.00;70.30;;;;;;5105261;28;19912;-71
2022/06/13 10:35:20;;;;;;;;;;;20.10;69.90;;;;;;5100396;28;19912;-71
2022/06/13 10:37:54;;;;;;;;;;;20.10;69.20;;;;;;5108197;28;20017;-71
2022/06/13 10:40:20;;;;;;;;;;;20.20;69.20;;;;;;5105001;28;19924;-71
2022/06/13 10:42:46;;;;;;;;;;;20.20;69.60;;;;;;5104864;28;20041;-71
2022/06/13 10:45:12;;;;;;;;;;;20.30;67.60;;;;;;5088027;28;19959;-71
2022/06/13 10:47:40;;;;;;;;;;;20.40;68.70;;;;;;5108289;28;19918;-71
2022/06/13 10:50:11;;;;;;;;;;;20.40;68.60;;;;;;5106654;28;19972;-71
2022/06/13 10:52:40;;;;;;;;;;;20.40;68.70;;;;;;5105590;28;19919;-71
2022/06/13 10:55:08;;;;;;;;;;;20.50;67.60;;;;;;5107512;28;19908;-71
2022/06/13 10:57:37;;;;;;;;;;;20.50;67.30;;;;;;5101957;28;19920;-71
2022/06/13 11:00:08;;;;;;;;;;;20.60;67.50;;;;;;5092794;28;20285;-72
2022/06/13 11:02:34;;;;;;;;;;;20.70;67.10;;;;;;5090163;28;19959;-71
2022/06/13 11:05:07;;;;;;;;;;;20.80;66.80;;;;;;5108902;28;20418;-72
2022/06/13 11:07:35;;;;;;;;;;;20.90;67.30;;;;;;5104331;28;19923;-71
2022/06/13 11:10:01;;;;;;;;;;;21.10;67.70;;;;;;5107160;28;19918;-71
2022/06/13 11:12:34;;;;;;;;;;;21.10;66.90;;;;;;5097550;28;20404;-71
2022/06/13 11:23:57;;;;;;;;;;;20.80;66.80;;;;;;5107129;28;19991;-71
2022/06/13 11:29:13;;;;;;;;;;;20.90;68.00;;;;;;5098222;28;19931;-72
2022/06/13 11:31:46;;;;;;;;;;;21.10;66.50;;;;;;5094568;28;20364;-71
2022/06/13 11:34:33;;;;;;;;;;;21.10;66.50;;;;;;5098338;28;20137;-71
2022/06/13 11:37:13;;;;;;;;;;;21.00;66.60;;;;;;5097845;28;19918;-72
2022/06/13 11:39:40;;;;;;;;;;;21.00;66.70;;;;;;5105023;27;20007;-71
2022/06/13 11:42:25;;;;;;;;;;;21.00;66.30;;;;;;5100153;28;19955;-72
2022/06/13 11:44:59;;;;;;;;;;;21.10;65.20;;;;;;5105549;28;19912;-71
2022/06/13 11:47:25;;;;;;;;;;;21.10;65.70;;;;;;5103348;28;19923;-72
2022/06/13 11:49:55;;;;;;;;;;;21.20;65.60;;;;;;5104286;28;19916;-72
2022/06/13 11:55:13;;;;;;;;;;;21.30;65.90;;;;;;5092611;28;19954;-72
2022/06/13 11:57:39;;;;;;;;;;;21.40;64.80;;;;;;5108159;28;19911;-72
2022/06/13 12:00:20;;;;;;;;;;;21.50;63.10;;;;;;5101626;28;20711;-72
2022/06/13 12:02:48;;;;;;;;;;;21.60;63.60;;;;;;5094330;28;19916;-72
2022/06/13 12:05:19;;;;;;;;;;;21.70;64.20;;;;;;5096822;28;19919;-72
2022/06/13 12:07:52;;;;;;;;;;;21.70;62.70;;;;;;5105513;28;20006;-72
2022/06/13 12:10:19;;;;;;;;;;;21.80;64.20;;;;;;5103191;28;20504;-72
2022/06/13 12:12:45;;;;;;;;;;;21.90;64.10;;;;;;5104677;28;19911;-72
2022/06/13 12:15:12;;;;;;;;;;;22.00;63.30;;;;;;5102640;28;19923;-72
2022/06/13 12:17:41;;;;;;;;;;;22.00;63.00;;;;;;5096978;27;19912;-72
2022/06/13 12:20:19;;;;;;;;;;;21.90;63.30;;;;;;5100467;28;19931;-72
2022/06/13 12:22:50;;;;;;;;;;;21.90;63.10;;;;;;5094199;28;19919;-72
2022/06/13 12:25:21;;;;;;;;;;;21.90;63.10;;;;;;5101330;28;19950;-72
2022/06/13 12:27:58;;;;;;;;;;;21.90;62.00;;;;;;5089588;28;20463;-72
2022/06/13 12:30:34;;;;;;;;;;;21.80;62.90;;;;;;5102056;28;19996;-72
2022/06/13 12:33:38;;;;;;;;;;;21.90;62.70;;;;;;5105722;28;19912;-73
2022/06/13 12:36:07;;;;;;;;;;;22.00;62.80;;;;;;5035929;28;19967;-72
2022/06/13 12:38:35;;;;;;;;;;;22.10;62.70;;;;;;5041642;28;19955;-72
2022/06/13 12:41:16;;;;;;;;;;;22.20;62.00;;;;;;5064959;28;19927;-72
2022/06/13 12:43:44;;;;;;;;;;;22.30;61.50;;;;;;5100988;28;20559;-72
2022/06/13 12:46:15;;;;;;;;;;;22.30;61.80;;;;;;5102291;28;19920;-72
2022/06/13 12:48:57;;;;;;;;;;;22.20;61.90;;;;;;5105800;28;19916;-72
2022/06/13 12:51:29;;;;;;;;;;;22.10;62.20;;;;;;5094267;28;20015;-72
2022/06/13 12:54:06;;;;;;;;;;;22.10;62.50;;;;;;5105604;28;19912;-72
2022/06/13 12:56:44;;;;;;;;;;;22.30;62.20;;;;;;5103257;28;19978;-72
2022/06/13 12:59:14;;;;;;;;;;;22.30;61.70;;;;;;5101279;28;19919;-72
2022/06/13 13:01:52;;;;;;;;;;;22.20;62.40;;;;;;5088284;28;20348;-72
2022/06/13 13:04:20;;;;;;;;;;;22.10;62.50;;;;;;5086147;28;20011;-72
2022/06/13 13:06:49;;;;;;;;;;;22.00;61.90;;;;;;5095963;28;19977;-72
2022/06/13 13:09:27;;;;;;;;;;;22.00;61.50;;;;;;5102987;28;19924;-72
2022/06/13 13:12:11;;;;;;;;;;;22.10;62.30;;;;;;5101509;28;20002;-72
2022/06/13 13:14:50;;;;;;;;;;;22.20;61.00;;;;;;5105855;28;20023;-72
2022/06/13 13:17:15;;;;;;;;;;;22.30;61.90;;;;;;5094519;28;19964;-71
2022/06/13 13:19:47;;;;;;;;;;;22.40;61.10;;;;;;5089224;28;19916;-72
2022/06/13 13:22:12;;;;;;;;;;;22.50;60.80;;;;;;5092074;28;19916;-72
2022/06/13 13:24:54;;;;;;;;;;;22.50;60.10;;;;;;5105673;28;19922;-73
2022/06/13 13:27:21;;;;;;;;;;;22.60;60.60;;;;;;5099886;28;19916;-72
2022/06/13 13:30:05;;;;;;;;;;;22.70;60.50;;;;;;5104683;28;19912;-72
2022/06/13 13:32:36;;;;;;;;;;;22.60;60.50;;;;;;5094247;28;19916;-72
2022/06/13 13:35:20;;;;;;;;;;;22.60;60.10;;;;;;5104919;28;19962;-72
2022/06/13 13:37:46;;;;;;;;;;;22.70;60.70;;;;;;5094299;28;20085;-72
2022/06/13 13:40:15;;;;;;;;;;;22.80;60.50;;;;;;5101353;28;19924;-72
2022/06/13 13:42:46;;;;;;;;;;;22.90;59.50;;;;;;5096214;28;20006;-72
2022/06/13 13:45:12;;;;;;;;;;;23.00;59.70;;;;;;5092807;28;20569;-72
2022/06/13 13:47:38;;;;;;;;;;;23.10;59.60;;;;;;5100994;28;19916;-72
2022/06/13 13:50:04;;;;;;;;;;;23.10;59.80;;;;;;5108392;28;19929;-73
2022/06/13 13:52:32;;;;;;;;;;;23.20;59.10;;;;;;5092993;28;20650;-73
2022/06/13 13:55:03;;;;;;;;;;;23.20;59.50;;;;;;5098318;28;19973;-72
2022/06/13 13:57:31;;;;;;;;;;;23.30;58.30;;;;;;5100447;28;19916;-73
2022/06/13 14:00:04;;;;;;;;;;;23.40;58.00;;;;;;5093997;28;20416;-72
2022/06/13 14:02:49;;;;;;;;;;;23.40;58.80;;;;;;5108442;28;19919;-72
2022/06/13 14:05:26;;;;;;;;;;;23.50;59.20;;;;;;5096869;28;19968;-72
2022/06/13 14:07:55;;;;;;;;;;;23.60;58.80;;;;;;5103207;28;20611;-73
2022/06/13 14:10:22;;;;;;;;;;;23.70;58.30;;;;;;5106918;28;19988;-72
2022/06/13 14:12:57;;;;;;;;;;;23.60;59.80;;;;;;5107192;28;19912;-73
2022/06/13 14:15:30;;;;;;;;;;;23.60;58.90;;;;;;5105557;28;19998;-73
2022/06/13 14:17:55;;;;;;;;;;;23.50;57.90;;;;;;5103096;28;19912;-72
2022/06/13 14:20:24;;;;;;;;;;;23.40;58.90;;;;;;5102777;28;19966;-72
2022/06/13 14:22:52;;;;;;;;;;;23.40;59.00;;;;;;5107810;28;19911;-73
2022/06/13 14:25:25;;;;;;;;;;;23.40;57.80;;;;;;5105715;28;19916;-73
2022/06/13 14:27:56;;;;;;;;;;;23.50;59.10;;;;;;5097804;28;19969;-73
2022/06/13 14:35:11;;;;;;;;;;;23.70;57.70;;;;;;5106982;28;20295;-72
2022/06/13 14:36:01;;;;;;;;;;;23.80;57.40;;;;;;5088840;28;19923;-72
2022/06/13 14:38:42;;;;;;;;;;;23.90;57.30;;;;;;5093609;28;20693;-73
2022/06/13 14:41:21;;;;;;;;;;;24.10;55.70;;;;;;5098403;28;20503;-73
2022/06/13 14:43:58;;;;;;;;;;;24.00;56.90;;;;;;5101844;28;19919;-72
2022/06/13 14:46:23;;;;;;;;;;;24.00;57.00;;;;;;5102870;28;19920;-72
2022/06/13 14:48:49;;;;;;;;;;;24.00;56.70;;;;;;5107386;28;19920;-73
2022/06/13 14:51:14;;;;;;;;;;;24.10;56.60;;;;;;5102574;28;20468;-72
2022/06/13 14:54:06;;;;;;;;;;;24.20;56.30;;;;;;5101079;28;19918;-73
2022/06/13 14:56:34;;;;;;;;;;;24.10;57.00;;;;;;5100423;28;20726;-72
2022/06/13 14:59:02;;;;;;;;;;;24.10;56.90;;;;;;5107962;28;19915;-72
2022/06/13 15:01:35;;;;;;;;;;;24.30;55.80;;;;;;5100677;28;19920;-73
2022/06/13 15:04:04;;;;;;;;;;;24.30;56.00;;;;;;5103246;28;20335;-73
2022/06/13 15:06:32;;;;;;;;;;;24.20;56.90;;;;;;5100281;28;19916;-71